Tuscaloosa, Alabama
Current Conditions -  °F | °C
As of 8:53 PM on Tuesday 25 Nov 2014 (Local Time) from KTCL Reporting Station
Broken Clouds Broken Clouds  
Wind Chill: 44°   Ceiling: 12000
Heat Index: 47°   Visibility: 10mi
Dew Point: 32°   Wind: 7mph
Humidity: 56%   Direction: 320°NW
Pressure: 30.15"   Gusts: NA
Location:  33.21°N, 87.56°W
Report Text: KTCL 260253Z AUTO 32006KT 10SM BKN120 08/00 A3015 RMK AO2 SLP208 T00830000 50003
Loading
Personal Weather Stations






























Interactive Weather Map New forecast layout! Learn more

10-Day Weather Forecast

Advertisements
Track Severe Weather on mobile